createdAt,value
2023-03-13T00:01:36.554Z,101745.47
2023-03-13T00:04:03.900Z,101743.75
2023-03-13T00:06:34.401Z,101740.97
2023-03-13T00:09:02.756Z,101746.22
2023-03-13T00:11:29.996Z,101742.84
2023-03-13T00:14:05.152Z,101738.41
2023-03-13T00:16:37.852Z,101750.00
2023-03-13T00:19:06.404Z,101742.84
2023-03-13T00:21:41.535Z,101739.28
2023-03-13T00:24:11.571Z,101742.16
2023-03-13T00:26:38.723Z,101740.94
2023-03-13T00:29:08.311Z,101739.22
2023-03-13T00:31:38.537Z,101746.22
2023-03-13T00:34:06.012Z,101737.47
2023-03-13T00:36:37.030Z,101744.50
2023-03-13T00:39:07.958Z,101738.28
2023-03-13T00:41:37.403Z,101732.22
2023-03-13T00:44:08.889Z,101732.03
2023-03-13T00:46:39.723Z,101744.28
2023-03-13T00:49:07.257Z,101742.94
2023-03-13T00:51:40.246Z,101743.41
2023-03-13T00:54:07.501Z,101740.03
2023-03-13T00:56:39.805Z,101744.41
2023-03-13T01:02:30.077Z,101740.22
2023-03-13T01:04:59.795Z,101739.69
2023-03-13T01:07:27.660Z,101749.00
2023-03-13T01:09:55.050Z,101738.25
2023-03-13T01:12:22.471Z,101726.97
2023-03-13T01:14:53.500Z,101735.47
2023-03-13T01:17:22.637Z,101736.38
2023-03-13T01:19:56.539Z,101735.13
2023-03-13T01:22:27.854Z,101727.34
2023-03-13T01:24:55.168Z,101728.09
2023-03-13T01:27:22.541Z,101721.88
2023-03-13T01:29:50.051Z,101720.31
2023-03-13T01:32:17.289Z,101710.13
2023-03-13T01:34:44.479Z,101726.66
2023-03-13T01:37:11.684Z,101716.53
2023-03-13T01:39:39.483Z,101705.38
2023-03-13T01:42:07.292Z,101707.41
2023-03-13T01:45:30.121Z,101711.84
2023-03-13T01:47:57.508Z,101702.59
2023-03-13T01:50:40.758Z,101700.16
2023-03-13T01:53:20.014Z,101702.16
2023-03-13T01:55:47.750Z,101702.59
2023-03-13T01:58:15.291Z,101699.84
2023-03-13T02:00:55.056Z,101684.00
2023-03-13T02:03:35.721Z,101697.06
2023-03-13T02:06:14.904Z,101682.91
2023-03-13T02:08:57.854Z,101681.59
2023-03-13T02:12:00.062Z,101669.41
2023-03-13T02:14:33.064Z,101670.31
2023-03-13T02:17:08.014Z,101655.78
2023-03-13T02:19:46.152Z,101653.78
2023-03-13T02:22:59.992Z,101658.25
2023-03-13T02:25:48.900Z,101652.63
2023-03-13T02:28:35.351Z,101646.50
2023-03-13T02:31:10.910Z,101643.13
2023-03-13T02:33:47.306Z,101635.66
2023-03-13T02:36:22.619Z,101623.81
2023-03-13T02:38:59.862Z,101627.31
2023-03-13T02:41:33.101Z,101620.41
2023-03-13T02:44:05.909Z,101636.47
2023-03-13T02:46:52.664Z,101625.47
2023-03-13T02:49:52.492Z,101625.72
2023-03-13T02:52:29.933Z,101615.91
2023-03-13T02:55:05.388Z,101614.16
2023-03-13T02:57:39.119Z,101611.84
2023-03-13T03:00:15.601Z,101612.56
2023-03-13T03:02:43.106Z,101612.59
2023-03-13T03:05:11.161Z,101604.09
2023-03-13T03:07:38.834Z,101603.19
2023-03-13T03:10:08.293Z,101587.50
2023-03-13T03:12:36.211Z,101586.66
2023-03-13T03:15:05.147Z,101592.53
2023-03-13T03:17:33.904Z,101594.41
2023-03-13T03:20:01.075Z,101592.72
2023-03-13T03:22:31.222Z,101592.88
2023-03-13T03:24:58.464Z,101593.59
2023-03-13T03:27:25.695Z,101591.06
2023-03-13T03:29:54.614Z,101584.63
2023-03-13T03:32:22.252Z,101575.47
2023-03-13T03:34:50.447Z,101576.44
2023-03-13T03:37:17.638Z,101580.03
2023-03-13T03:39:44.930Z,101579.00
2023-03-13T03:42:12.143Z,101573.25
2023-03-13T03:44:39.270Z,101583.63
2023-03-13T03:47:06.636Z,101576.78
2023-03-13T03:49:38.250Z,101582.06
2023-03-13T03:52:06.402Z,101576.09
2023-03-13T03:54:37.723Z,101572.72
2023-03-13T03:57:05.074Z,101574.56
2023-03-13T03:59:32.842Z,101569.19
2023-03-13T04:02:08.893Z,101568.47
2023-03-13T04:04:37.122Z,101570.94
2023-03-13T04:07:11.011Z,101570.19
2023-03-13T04:09:39.833Z,101562.06
2023-03-13T04:12:09.277Z,101571.75
2023-03-13T04:14:41.605Z,101564.03
2023-03-13T04:17:11.100Z,101564.94
2023-03-13T04:19:38.776Z,101565.72
2023-03-13T04:22:06.292Z,101550.97
2023-03-13T04:24:33.946Z,101551.91
2023-03-13T04:27:02.782Z,101550.09
2023-03-13T04:29:31.059Z,101539.78
2023-03-13T04:32:33.663Z,101544.19
2023-03-13T04:35:19.525Z,101553.75
2023-03-13T04:38:02.970Z,101550.31
2023-03-13T04:40:52.948Z,101542.59
2023-03-13T04:43:42.812Z,101539.03
2023-03-13T04:46:42.248Z,101546.06
2023-03-13T04:49:28.180Z,101548.56
2023-03-13T04:52:11.530Z,101548.50
2023-03-13T04:55:11.437Z,101550.25
2023-03-13T04:58:02.139Z,101552.75
2023-03-13T05:00:35.512Z,101546.81
2023-03-13T05:03:31.218Z,101540.59
2023-03-13T05:06:24.203Z,101539.69
2023-03-13T05:09:32.005Z,101546.66
2023-03-13T05:12:32.451Z,101542.31
2023-03-13T05:15:12.535Z,101544.06
2023-03-13T05:18:08.028Z,101551.84
2023-03-13T05:20:51.434Z,101553.56
2023-03-13T05:23:30.969Z,101551.91
2023-03-13T05:26:25.932Z,101552.75
2023-03-13T05:29:22.377Z,101542.41
2023-03-13T05:32:13.080Z,101554.44
2023-03-13T05:35:11.203Z,101556.28
2023-03-13T05:41:05.231Z,101537.03
2023-03-13T05:47:18.608Z,101544.91
2023-03-13T05:50:14.901Z,101543.16
2023-03-13T05:53:37.601Z,101542.09
2023-03-13T05:56:31.409Z,101542.13
2023-03-13T05:59:11.767Z,101534.31
2023-03-13T06:01:59.421Z,101540.31
2023-03-13T06:04:35.792Z,101536.03
2023-03-13T06:07:06.247Z,101536.09
2023-03-13T06:09:33.553Z,101527.25
2023-03-13T06:12:03.791Z,101536.81
2023-03-13T06:14:42.018Z,101535.22
2023-03-13T06:17:18.360Z,101534.28
2023-03-13T06:19:52.797Z,101537.00
2023-03-13T06:22:32.242Z,101544.75
2023-03-13T06:25:08.604Z,101533.47
2023-03-13T06:27:40.613Z,101522.13
2023-03-13T06:30:14.177Z,101527.38
2023-03-13T06:32:50.632Z,101524.00
2023-03-13T06:35:19.648Z,101524.94
2023-03-13T06:37:57.129Z,101540.09
2023-03-13T06:40:25.889Z,101531.78
2023-03-13T06:45:53.094Z,101524.78
2023-03-13T06:48:23.393Z,101511.03
2023-03-13T06:50:50.758Z,101510.31
2023-03-13T06:53:20.567Z,101522.66
2023-03-13T06:55:49.372Z,101525.19
2023-03-13T06:58:31.120Z,101530.50
2023-03-13T07:01:09.183Z,101520.13
2023-03-13T07:03:45.233Z,101519.41
2023-03-13T07:06:13.032Z,101525.69
2023-03-13T07:08:40.232Z,101531.06
2023-03-13T07:11:12.970Z,101532.84
2023-03-13T07:13:42.652Z,101532.19
2023-03-13T07:16:12.848Z,101538.38
2023-03-13T07:18:44.934Z,101536.47
2023-03-13T07:21:13.150Z,101540.66
2023-03-13T07:23:43.305Z,101544.19
2023-03-13T07:26:15.768Z,101543.44
2023-03-13T07:28:45.856Z,101547.09
2023-03-13T07:31:24.136Z,101544.47
2023-03-13T07:33:56.783Z,101538.50
2023-03-13T07:36:24.348Z,101531.63
2023-03-13T07:38:59.538Z,101533.25
2023-03-13T07:41:29.751Z,101537.88
2023-03-13T07:43:56.894Z,101542.94
2023-03-13T07:46:25.759Z,101522.13
2023-03-13T07:48:55.397Z,101528.22
2023-03-13T07:51:40.769Z,101524.84
2023-03-13T07:54:10.535Z,101516.66
2023-03-13T07:56:37.732Z,101507.38
2023-03-13T07:59:05.356Z,101514.41
2023-03-13T08:01:35.000Z,101518.03
2023-03-13T08:04:02.492Z,101510.03
2023-03-13T08:06:33.960Z,101510.16
2023-03-13T08:09:03.921Z,101514.53
2023-03-13T08:11:31.022Z,101515.47
2023-03-13T08:13:59.058Z,101514.59
2023-03-13T08:16:35.069Z,101517.25
2023-03-13T08:19:06.333Z,101514.72
2023-03-13T08:21:38.014Z,101520.88
2023-03-13T08:24:08.144Z,101535.06
2023-03-13T08:26:38.272Z,101515.00
2023-03-13T08:29:08.507Z,101511.50
2023-03-13T08:31:42.476Z,101506.41
2023-03-13T08:34:13.240Z,101510.13
2023-03-13T08:36:43.904Z,101512.75
2023-03-13T08:39:17.378Z,101505.78
2023-03-13T08:41:44.757Z,101511.94
2023-03-13T08:44:19.314Z,101516.38
2023-03-13T08:46:52.590Z,101510.28
2023-03-13T08:49:20.049Z,101501.47
2023-03-13T08:51:47.567Z,101496.28
2023-03-13T08:54:14.813Z,101499.03
2023-03-13T08:56:43.782Z,101491.97
2023-03-13T08:59:11.561Z,101488.53
2023-03-13T09:01:41.071Z,101480.63
2023-03-13T09:04:11.559Z,101484.09
2023-03-13T09:06:41.628Z,101478.72
2023-03-13T09:09:09.942Z,101484.00
2023-03-13T09:11:39.548Z,101473.47
2023-03-13T09:14:07.792Z,101462.16
2023-03-13T09:16:36.267Z,101462.91
2023-03-13T09:19:03.709Z,101467.31
2023-03-13T09:21:35.892Z,101451.66
2023-03-13T09:24:03.278Z,101454.31
2023-03-13T09:26:31.218Z,101458.69
2023-03-13T09:28:58.875Z,101455.97
2023-03-13T09:31:29.118Z,101456.75
2023-03-13T09:33:56.444Z,101442.69
2023-03-13T09:36:25.234Z,101444.97
2023-03-13T09:38:58.140Z,101437.03
2023-03-13T09:41:40.554Z,101423.28
2023-03-13T09:44:15.241Z,101425.91
2023-03-13T09:47:10.173Z,101431.91
2023-03-13T09:49:46.379Z,101432.53
2023-03-13T09:52:23.684Z,101436.00
2023-03-13T09:55:20.542Z,101423.91
2023-03-13T09:58:16.267Z,101428.44
2023-03-13T10:00:58.677Z,101422.28
2023-03-13T10:03:30.019Z,101409.72
2023-03-13T10:06:01.363Z,101419.06
2023-03-13T10:08:36.750Z,101417.72
2023-03-13T10:12:19.796Z,101425.56
2023-03-13T10:15:18.089Z,101407.97
2023-03-13T10:17:47.995Z,101408.19
2023-03-13T10:20:23.038Z,101400.28
2023-03-13T10:23:07.948Z,101386.91
2023-03-13T10:25:45.854Z,101407.19
2023-03-13T10:28:16.405Z,101396.63
2023-03-13T10:30:59.503Z,101390.53
2023-03-13T10:33:51.731Z,101379.56
2023-03-13T10:36:24.700Z,101385.03
2023-03-13T10:39:16.826Z,101374.09
2023-03-13T10:41:44.134Z,101371.59
2023-03-13T10:44:20.148Z,101359.19
2023-03-13T10:46:49.605Z,101358.00
2023-03-13T10:49:28.816Z,101347.59
2023-03-13T10:52:10.849Z,101341.38
2023-03-13T10:54:52.888Z,101338.28
2023-03-13T10:57:26.146Z,101337.16
2023-03-13T10:59:54.577Z,101331.66
2023-03-13T11:02:27.372Z,101330.47
2023-03-13T11:04:55.583Z,101335.56
2023-03-13T11:07:44.485Z,101328.47
2023-03-13T11:10:25.376Z,101327.09
2023-03-13T11:12:55.194Z,101319.84
2023-03-13T11:15:35.757Z,101315.06
2023-03-13T11:18:21.134Z,101317.13
2023-03-13T11:20:49.524Z,101309.09
2023-03-13T11:23:29.591Z,101297.56
2023-03-13T11:26:05.920Z,101309.03
2023-03-13T11:28:57.970Z,101300.09
2023-03-13T11:31:37.189Z,101298.78
2023-03-13T11:34:23.919Z,101286.28
2023-03-13T11:37:12.839Z,101282.91
2023-03-13T11:40:22.972Z,101272.56
2023-03-13T11:43:17.844Z,101261.75
2023-03-13T11:46:34.394Z,101254.50
2023-03-13T11:49:28.819Z,101250.16
2023-03-13T11:52:39.411Z,101246.16
2023-03-13T11:55:39.008Z,101246.72
2023-03-13T11:58:40.073Z,101236.31
2023-03-13T12:01:41.316Z,101242.97
2023-03-13T12:04:23.081Z,101233.59
2023-03-13T12:07:21.561Z,101223.56
2023-03-13T12:10:41.507Z,101226.75
2023-03-13T12:13:38.207Z,101227.44
2023-03-13T12:16:43.938Z,101217.22
2023-03-13T12:20:08.950Z,101197.94
2023-03-13T12:23:03.764Z,101200.31
2023-03-13T12:26:00.627Z,101192.66
2023-03-13T12:28:36.535Z,101181.66
2023-03-13T12:31:27.995Z,101169.97
2023-03-13T12:34:16.862Z,101167.13
2023-03-13T12:37:03.401Z,101160.53
2023-03-13T12:39:40.331Z,101150.78
2023-03-13T12:42:43.942Z,101140.38
2023-03-13T12:45:31.519Z,101135.63
2023-03-13T12:48:23.457Z,101142.91
2023-03-13T12:54:32.247Z,101127.13
2023-03-13T12:58:14.053Z,101127.66
2023-03-13T13:00:50.214Z,101123.25
2023-03-13T13:03:34.660Z,101122.75
2023-03-13T13:09:14.129Z,101121.38
2023-03-13T13:11:45.933Z,101107.47
2023-03-13T13:14:19.641Z,101106.56
2023-03-13T13:17:16.519Z,101107.22
2023-03-13T13:19:46.219Z,101104.56
2023-03-13T13:22:39.403Z,101097.69
2023-03-13T13:25:35.746Z,101092.31
2023-03-13T13:28:30.888Z,101085.34
2023-03-13T13:31:43.194Z,101068.53
2023-03-13T13:34:31.364Z,101067.19
2023-03-13T13:37:04.412Z,101063.97
2023-03-13T13:39:52.884Z,101053.75
2023-03-13T13:42:45.098Z,101040.47
2023-03-13T13:45:22.287Z,101023.19
2023-03-13T13:48:35.918Z,101005.91
2023-03-13T13:51:11.349Z,101017.81
2023-03-13T13:53:56.055Z,100999.69
2023-03-13T13:56:32.157Z,100982.34
2023-03-13T13:59:13.576Z,100977.94
2023-03-13T14:01:44.329Z,100974.56
2023-03-13T14:04:33.085Z,100970.88
2023-03-13T14:07:03.930Z,100964.91
2023-03-13T14:09:31.015Z,100973.56
2023-03-13T14:12:03.876Z,100974.63
2023-03-13T14:14:31.066Z,100958.88
2023-03-13T14:16:58.361Z,100951.59
2023-03-13T14:19:31.306Z,100961.16
2023-03-13T14:22:04.424Z,100972.66
2023-03-13T14:24:32.021Z,100968.50
2023-03-13T14:27:04.290Z,100967.47
2023-03-13T14:29:31.526Z,100959.31
2023-03-13T14:32:02.552Z,100969.78
2023-03-13T14:34:32.734Z,100960.88
2023-03-13T14:37:17.317Z,100955.13
2023-03-13T14:39:49.293Z,100964.25
2023-03-13T14:42:22.991Z,100960.88
2023-03-13T14:44:50.695Z,100951.06
2023-03-13T14:47:36.969Z,100949.16
2023-03-13T14:50:10.712Z,100943.88
2023-03-13T14:52:40.044Z,100942.63
2023-03-13T14:55:24.687Z,100945.88
2023-03-13T14:57:56.972Z,100933.34
2023-03-13T15:00:43.686Z,100926.97
2023-03-13T15:03:17.586Z,100922.06
2023-03-13T15:05:47.957Z,100916.06
2023-03-13T15:08:25.082Z,100912.09
2023-03-13T15:10:52.269Z,100906.72
2023-03-13T15:13:37.416Z,100897.81
2023-03-13T15:16:15.733Z,100905.94
2023-03-13T15:18:43.427Z,100900.50
2023-03-13T15:21:13.470Z,100886.03
2023-03-13T15:23:42.670Z,100885.22
2023-03-13T15:26:13.006Z,100889.53
2023-03-13T15:28:43.232Z,100878.91
2023-03-13T15:31:18.989Z,100864.19
2023-03-13T15:33:46.465Z,100860.88
2023-03-13T15:36:16.436Z,100869.72
2023-03-13T15:38:43.717Z,100860.34
2023-03-13T15:41:14.013Z,100860.75
2023-03-13T15:43:46.284Z,100850.34
2023-03-13T15:46:28.803Z,100843.16
2023-03-13T15:48:58.749Z,100839.06
2023-03-13T15:51:28.288Z,100835.78
2023-03-13T15:53:55.447Z,100833.09
2023-03-13T15:56:23.497Z,100828.22
2023-03-13T15:58:53.984Z,100826.31
2023-03-13T16:01:23.511Z,100830.25
2023-03-13T16:04:00.816Z,100840.66
2023-03-13T16:06:36.606Z,100822.13
2023-03-13T16:09:11.104Z,100840.38
2023-03-13T16:12:25.997Z,100830.16
2023-03-13T16:14:58.015Z,100823.88
2023-03-13T16:17:33.100Z,100816.88
2023-03-13T16:20:00.220Z,100815.31
2023-03-13T16:22:35.467Z,100807.91
2023-03-13T16:25:02.513Z,100807.16
2023-03-13T16:27:34.307Z,100808.84
2023-03-13T16:30:07.239Z,100802.38
2023-03-13T16:32:34.675Z,100793.88
2023-03-13T16:35:02.443Z,100789.41
2023-03-13T16:37:36.858Z,100795.78
2023-03-13T16:40:32.814Z,100803.94
2023-03-13T16:43:01.122Z,100808.31
2023-03-13T16:45:30.747Z,100804.50
2023-03-13T16:48:03.639Z,100793.25
2023-03-13T16:50:39.948Z,100778.50
2023-03-13T16:53:09.225Z,100771.41
2023-03-13T16:55:42.792Z,100766.22
2023-03-13T16:58:12.264Z,100773.25
2023-03-13T17:00:41.839Z,100757.63
2023-03-13T17:03:11.866Z,100761.00
2023-03-13T17:05:48.367Z,100742.75
2023-03-13T17:08:15.628Z,100743.63
2023-03-13T17:10:43.279Z,100744.22
2023-03-13T17:13:10.842Z,100740.84
2023-03-13T17:15:39.344Z,100730.66
2023-03-13T17:18:10.565Z,100727.00
2023-03-13T17:20:42.886Z,100722.69
2023-03-13T17:23:19.770Z,100731.41
2023-03-13T17:25:56.352Z,100724.25
2023-03-13T17:28:30.292Z,100721.75
2023-03-13T17:31:00.592Z,100730.41
2023-03-13T17:33:33.719Z,100737.44
2023-03-13T17:36:22.519Z,100726.00
2023-03-13T17:38:57.600Z,100734.81
2023-03-13T17:41:39.596Z,100731.53
2023-03-13T17:44:11.434Z,100721.03
2023-03-13T17:46:42.539Z,100747.22
2023-03-13T17:49:17.194Z,100740.19
2023-03-13T17:51:49.409Z,100739.41
2023-03-13T17:54:16.726Z,100736.81
2023-03-13T17:56:44.510Z,100742.00
2023-03-13T17:59:19.431Z,100748.00
2023-03-13T18:01:47.114Z,100756.06
2023-03-13T18:04:19.289Z,100740.28
2023-03-13T18:06:54.858Z,100748.13
2023-03-13T18:09:36.120Z,100747.25
2023-03-13T18:12:12.176Z,100749.91
2023-03-13T18:14:49.943Z,100744.63
2023-03-13T18:17:32.890Z,100715.00
2023-03-13T18:20:02.702Z,100716.66
2023-03-13T18:22:31.228Z,100734.13
2023-03-13T18:25:09.621Z,100721.03
2023-03-13T18:27:37.271Z,100719.13
2023-03-13T18:30:07.425Z,100723.50
2023-03-13T18:32:34.756Z,100731.31
2023-03-13T18:35:02.016Z,100731.34
2023-03-13T18:37:33.429Z,100721.00
2023-03-13T18:40:11.790Z,100719.22
2023-03-13T18:42:42.441Z,100728.91
2023-03-13T18:45:26.312Z,100720.16
2023-03-13T18:47:53.962Z,100730.69
2023-03-13T18:51:11.877Z,100723.63
2023-03-13T18:53:42.248Z,100714.94
2023-03-13T18:56:32.719Z,100705.28
2023-03-13T18:59:16.020Z,100714.06
2023-03-13T19:01:52.728Z,100714.94
2023-03-13T19:04:26.046Z,100716.72
2023-03-13T19:06:56.236Z,100714.09
2023-03-13T19:09:43.640Z,100702.75
2023-03-13T19:12:12.130Z,100715.84
2023-03-13T19:14:40.661Z,100717.59
2023-03-13T19:17:27.041Z,100723.69
2023-03-13T19:20:05.632Z,100714.94
2023-03-13T19:22:41.712Z,100709.69
2023-03-13T19:25:22.563Z,100712.28
2023-03-13T19:27:53.301Z,100711.41
2023-03-13T19:30:28.253Z,100711.50
2023-03-13T19:33:02.723Z,100707.97
2023-03-13T19:35:34.260Z,100715.84
2023-03-13T19:38:04.658Z,100723.66
2023-03-13T19:40:34.940Z,100726.34
2023-03-13T19:43:05.592Z,100728.97
2023-03-13T19:45:39.008Z,100729.81
2023-03-13T19:48:08.159Z,100729.84
2023-03-13T19:50:40.128Z,100721.97
2023-03-13T19:53:20.302Z,100728.94
2023-03-13T19:55:55.550Z,100722.81
2023-03-13T19:58:41.023Z,100728.06
2023-03-13T20:01:17.326Z,100719.31
2023-03-13T20:03:57.128Z,100716.72
2023-03-13T20:06:41.083Z,100708.88
2023-03-13T20:09:24.616Z,100696.59
2023-03-13T20:12:16.651Z,100686.09
2023-03-13T20:14:55.615Z,100676.47
2023-03-13T20:17:27.137Z,100676.47
2023-03-13T20:20:02.571Z,100675.59
2023-03-13T20:22:33.297Z,100678.25
2023-03-13T20:25:04.916Z,100680.78
2023-03-13T20:27:35.691Z,100693.94
2023-03-13T20:30:15.870Z,100702.72
2023-03-13T20:32:59.324Z,100700.91
2023-03-13T20:35:43.144Z,100705.28
2023-03-13T20:38:24.623Z,100712.34
2023-03-13T20:43:54.952Z,100731.59
2023-03-13T20:46:25.897Z,100731.59
2023-03-13T20:49:02.289Z,100714.94
2023-03-13T20:51:34.303Z,100709.66
2023-03-13T20:54:18.611Z,100719.28
2023-03-13T20:56:52.246Z,100727.22
2023-03-13T20:59:31.327Z,100715.84
2023-03-13T21:02:13.157Z,100712.34
2023-03-13T21:04:45.604Z,100710.59
2023-03-13T21:07:12.993Z,100707.13
2023-03-13T21:09:50.962Z,100708.84
2023-03-13T21:15:16.656Z,100705.38
2023-03-13T21:17:49.989Z,100701.88
2023-03-13T21:20:19.745Z,100710.59
2023-03-13T21:22:54.953Z,100714.97
2023-03-13T21:25:28.775Z,100712.34
2023-03-13T21:27:59.470Z,100703.63
2023-03-13T21:30:27.459Z,100703.56
2023-03-13T21:33:11.710Z,100719.34
2023-03-13T21:35:41.751Z,100720.19
2023-03-13T21:38:13.444Z,100728.94
2023-03-13T21:40:43.706Z,100701.84
2023-03-13T21:43:20.267Z,100716.75
2023-03-13T21:45:52.162Z,100705.31
2023-03-13T21:51:18.224Z,100701.53
2023-03-13T21:53:45.693Z,100711.16
2023-03-13T21:56:23.569Z,100690.91
2023-03-13T21:58:54.319Z,100682.88
2023-03-13T22:01:28.796Z,100708.31
2023-03-13T22:04:09.524Z,100695.03
2023-03-13T22:07:00.395Z,100695.78
2023-03-13T22:09:40.625Z,100693.16
2023-03-13T22:12:18.765Z,100692.97
2023-03-13T22:14:56.119Z,100704.25
2023-03-13T22:17:55.238Z,100713.91
2023-03-13T22:20:39.710Z,100697.09
2023-03-13T22:23:13.221Z,100705.88
2023-03-13T22:26:02.843Z,100699.75
2023-03-13T22:28:45.706Z,100683.91
2023-03-13T22:31:27.303Z,100690.97
2023-03-13T22:34:03.531Z,100703.03
2023-03-13T22:36:46.867Z,100683.72
2023-03-13T22:39:30.196Z,100680.94
2023-03-13T22:42:03.750Z,100689.16
2023-03-13T22:44:44.612Z,100674.13
2023-03-13T22:47:26.162Z,100689.09
2023-03-13T22:50:09.579Z,100669.75
2023-03-13T22:52:47.962Z,100682.97
2023-03-13T22:55:27.481Z,100697.13
2023-03-13T22:58:14.242Z,100694.16
2023-03-13T23:00:54.973Z,100705.78
2023-03-13T23:03:35.286Z,100691.72
2023-03-13T23:06:26.272Z,100690.97
2023-03-13T23:09:14.884Z,100694.63
2023-03-13T23:12:07.075Z,100706.75
2023-03-13T23:14:48.933Z,100687.28
2023-03-13T23:17:32.250Z,100682.16
2023-03-13T23:20:16.684Z,100694.47
2023-03-13T23:22:59.058Z,100696.47
2023-03-13T23:25:41.292Z,100712.19
2023-03-13T23:28:23.388Z,100702.56
2023-03-13T23:31:04.460Z,100722.56
2023-03-13T23:33:49.908Z,100744.75
2023-03-13T23:36:36.358Z,100737.66
2023-03-13T23:39:44.046Z,100756.09
2023-03-13T23:42:35.472Z,100789.53
2023-03-13T23:45:18.780Z,100757.97
2023-03-13T23:48:05.099Z,100786.03
2023-03-13T23:50:42.956Z,100787.69
2023-03-13T23:53:21.085Z,100803.72
2023-03-13T23:56:00.958Z,100802.78
2023-03-13T23:58:33.675Z,100797.63
